Uncasville, Connecticut
Current Conditions -  °F | °C
As of 9:56 PM on Monday 22 Dec 2014 (Local Time) from KGON Reporting Station
Overcast Overcast  
Wind Chill: 36°   Ceiling: 1900
Heat Index: 44°   Visibility: 7mi
Dew Point: 39°   Wind: 17mph
Humidity: 82%   Direction: 80°E
Pressure: 30.25"   Gusts: NA
Location:  41.43°N, 72.11°W
Report Text: KGON 230256Z 08015KT 7SM OVC019 07/04 A3025 RMK AO2 SLP242 T00670039 58007
Loading
Personal Weather Stations






























Interactive Weather Map New forecast layout! Learn more

10-Day Weather Forecast

Advertisements
Track Severe Weather on mobile